Time;durP1;ratioP1;P1;durP2;ratioP2;P2;SDS_P1;SDS_P2;PMS_P1;PMS_P2;Temp;Humidity;BMP_temperature;BMP_pressure;BME280_temperature;BME280_humidity;BME280_pressure;Samples;Min_cycle;Max_cycle;Signal;HPM_P1;HPM_P2
2023/04/09 00:00:09;;;;;;;5.90;5.40;;;11.40;70.90;;;;;;5015138;28;20177;-89
2023/04/09 00:02:34;;;;;;;6.70;6.20;;;11.30;70.50;;;;;;5014922;28;20209;-87
2023/04/09 00:07:37;;;;;;;7.23;6.67;;;11.30;70.50;;;;;;5069273;22;20238;-90
2023/04/09 00:10:02;;;;;;;7.47;6.87;;;11.30;70.80;;;;;;5054256;28;20183;-91
2023/04/09 00:12:29;;;;;;;7.13;6.57;;;11.20;71.00;;;;;;5043505;28;20904;-91
2023/04/09 00:14:55;;;;;;;7.47;6.87;;;11.20;71.20;;;;;;5033568;28;20573;-91
2023/04/09 00:17:20;;;;;;;6.93;6.33;;;11.10;71.40;;;;;;5033314;28;20286;-91
2023/04/09 00:19:46;;;;;;;6.97;6.37;;;11.10;71.50;;;;;;5035201;28;20671;-91
2023/04/09 00:22:12;;;;;;;7.83;7.13;;;11.10;71.80;;;;;;5036288;28;20185;-90
2023/04/09 00:24:38;;;;;;;7.13;6.53;;;11.00;72.20;;;;;;5050827;28;20173;-91
2023/04/09 00:27:04;;;;;;;7.23;6.53;;;11.00;72.40;;;;;;5040600;28;20262;-92
2023/04/09 00:29:30;;;;;;;7.27;6.57;;;11.10;72.10;;;;;;5057473;28;20176;-92
2023/04/09 00:31:55;;;;;;;7.80;7.20;;;11.10;72.20;;;;;;5055761;28;20230;-90
2023/04/09 00:34:21;;;;;;;7.30;6.70;;;11.00;72.20;;;;;;5037361;28;20552;-91
2023/04/09 00:36:47;;;;;;;7.70;7.00;;;11.10;72.10;;;;;;5035081;28;20282;-90
2023/04/09 00:39:12;;;;;;;7.13;6.53;;;11.00;72.20;;;;;;5034849;28;20183;-91
2023/04/09 00:41:38;;;;;;;7.83;7.23;;;11.00;72.60;;;;;;5034364;28;20183;-90
2023/04/09 00:44:04;;;;;;;7.47;6.87;;;11.00;72.80;;;;;;5034371;28;20215;-91
2023/04/09 00:46:30;;;;;;;7.43;6.83;;;11.00;73.20;;;;;;5032477;28;20204;-91
2023/04/09 00:48:56;;;;;;;7.80;7.10;;;10.90;73.50;;;;;;5033518;28;20881;-91
2023/04/09 00:51:22;;;;;;;7.43;6.83;;;10.90;73.50;;;;;;5034210;28;20207;-92
2023/04/09 00:53:48;;;;;;;7.90;7.20;;;10.90;73.90;;;;;;5034049;28;20195;-88
2023/04/09 00:56:15;;;;;;;7.50;6.90;;;11.00;73.20;;;;;;5035030;28;20235;-89
2023/04/09 00:58:41;;;;;;;7.40;6.80;;;10.90;73.50;;;;;;5034838;28;20206;-90
2023/04/09 01:01:06;;;;;;;8.47;7.67;;;10.90;73.60;;;;;;5016813;28;20179;-91
2023/04/09 01:03:32;;;;;;;7.80;7.20;;;10.90;73.70;;;;;;5052129;28;20824;-90
2023/04/09 01:06:16;;;;;;;8.20;7.50;;;10.90;73.90;;;;;;5052564;28;20232;-89
2023/04/09 01:09:13;;;;;;;8.53;7.83;;;10.80;73.70;;;;;;5041544;28;20724;-90
2023/04/09 01:11:55;;;;;;;8.03;7.33;;;10.80;73.80;;;;;;5014612;28;20187;-92
2023/04/09 01:14:32;;;;;;;7.23;6.63;;;10.70;74.00;;;;;;5034129;28;20181;-90
2023/04/09 01:17:04;;;;;;;8.33;7.60;;;10.70;74.10;;;;;;5034017;28;20747;-91
2023/04/09 01:20:05;;;;;;;7.77;7.07;;;10.80;74.00;;;;;;5034902;28;20170;-91
2023/04/09 01:22:53;;;;;;;8.87;8.07;;;10.70;74.00;;;;;;5034063;28;20254;-90
2023/04/09 01:25:19;;;;;;;7.83;7.03;;;10.70;74.20;;;;;;5033753;28;20936;-90
2023/04/09 01:28:11;;;;;;;7.50;6.90;;;10.70;74.00;;;;;;5033362;28;20173;-90
2023/04/09 01:30:39;;;;;;;7.90;7.30;;;10.70;73.80;;;;;;5033448;28;20162;-89
2023/04/09 01:33:05;;;;;;;8.93;8.20;;;10.70;73.70;;;;;;4998226;28;20187;-90
2023/04/09 01:35:31;;;;;;;8.70;8.00;;;10.60;74.20;;;;;;5015661;28;20286;-91
2023/04/09 01:37:57;;;;;;;8.93;8.03;;;10.60;73.70;;;;;;5034498;28;20180;-93
2023/04/09 01:40:23;;;;;;;8.67;7.97;;;10.50;74.10;;;;;;5024282;28;20660;-91
2023/04/09 01:42:50;;;;;;;8.20;7.50;;;10.60;74.10;;;;;;5012988;28;20300;-90
2023/04/09 01:45:16;;;;;;;9.13;8.33;;;10.60;74.20;;;;;;5012733;28;20183;-91
2023/04/09 01:47:43;;;;;;;7.53;6.93;;;10.60;74.20;;;;;;5013715;28;20274;-90
2023/04/09 01:50:09;;;;;;;8.53;7.83;;;10.60;74.20;;;;;;5029001;28;20642;-91
2023/04/09 01:52:35;;;;;;;8.90;8.20;;;10.60;74.40;;;;;;5034714;28;20502;-91
2023/04/09 01:55:00;;;;;;;8.03;7.33;;;10.70;73.80;;;;;;5025545;28;20189;-90
2023/04/09 01:57:26;;;;;;;8.73;8.03;;;10.60;73.40;;;;;;5019211;28;20200;-91
2023/04/09 01:59:53;;;;;;;8.03;7.33;;;10.70;74.00;;;;;;5041874;28;20268;-90
2023/04/09 02:02:33;;;;;;;8.77;8.00;;;10.70;73.40;;;;;;5035359;28;20199;-90
2023/04/09 02:05:02;;;;;;;9.57;8.57;;;10.70;72.70;;;;;;5035047;28;20215;-91
2023/04/09 02:07:37;;;;;;;9.03;8.23;;;10.60;73.60;;;;;;5016585;28;20344;-90
2023/04/09 02:10:05;;;;;;;9.27;8.47;;;10.60;74.20;;;;;;5016665;28;20176;-91
2023/04/09 02:12:32;;;;;;;8.50;7.80;;;10.50;74.40;;;;;;4998348;28;20190;-91
2023/04/09 02:15:00;;;;;;;8.87;8.03;;;10.50;74.80;;;;;;5005450;28;20183;-90
2023/04/09 02:17:26;;;;;;;9.57;8.67;;;10.50;75.00;;;;;;5036118;28;20654;-91
2023/04/09 02:19:51;;;;;;;8.03;7.33;;;10.50;74.80;;;;;;5036207;28;20176;-90
2023/04/09 02:22:17;;;;;;;8.63;7.83;;;10.40;75.10;;;;;;5036575;28;20575;-89
2023/04/09 02:24:44;;;;;;;8.90;8.00;;;10.50;75.10;;;;;;5036011;28;20258;-91
2023/04/09 02:27:10;;;;;;;8.57;7.73;;;10.50;74.90;;;;;;5036719;28;20565;-89
2023/04/09 02:29:37;;;;;;;8.50;7.80;;;10.50;75.10;;;;;;5036888;28;20178;-90
2023/04/09 02:32:04;;;;;;;9.27;8.47;;;10.50;74.80;;;;;;5027738;28;20605;-91
2023/04/09 02:34:29;;;;;;;9.67;8.77;;;10.50;74.60;;;;;;5016799;28;20238;-91
2023/04/09 02:36:55;;;;;;;9.07;8.20;;;10.40;74.70;;;;;;5034079;28;20580;-91
2023/04/09 02:39:21;;;;;;;8.37;7.67;;;10.30;74.80;;;;;;5035361;28;20174;-92
2023/04/09 02:41:46;;;;;;;9.00;8.10;;;10.30;75.00;;;;;;5036861;28;20181;-89
2023/04/09 02:44:12;;;;;;;9.20;8.40;;;10.30;75.10;;;;;;5036231;28;20213;-91
2023/04/09 02:46:39;;;;;;;9.00;8.30;;;10.30;75.20;;;;;;5015846;28;20194;-90
2023/04/09 02:49:05;;;;;;;9.30;8.50;;;10.40;74.60;;;;;;5016789;28;20176;-90
2023/04/09 02:51:30;;;;;;;9.30;8.40;;;10.30;75.10;;;;;;5016375;28;20256;-90
2023/04/09 02:53:56;;;;;;;8.87;8.07;;;10.30;75.20;;;;;;5032953;28;20185;-91
2023/04/09 02:56:21;;;;;;;9.37;8.50;;;10.30;76.40;;;;;;5044761;28;20214;-89
2023/04/09 02:58:50;;;;;;;8.50;7.70;;;10.10;76.70;;;;;;5054087;28;20706;-90
2023/04/09 03:01:15;;;;;;;8.90;8.03;;;10.00;77.60;;;;;;5032725;28;20573;-90
2023/04/09 03:03:42;;;;;;;9.07;8.27;;;10.00;77.10;;;;;;5016541;28;20229;-89
2023/04/09 03:06:08;;;;;;;8.47;7.67;;;9.90;76.90;;;;;;5015990;28;20229;-92
2023/04/09 03:08:33;;;;;;;9.63;8.67;;;9.90;76.30;;;;;;5021800;28;20264;-90
2023/04/09 03:10:59;;;;;;;9.50;8.50;;;9.90;76.40;;;;;;5036181;28;20181;-90
2023/04/09 03:13:26;;;;;;;9.47;8.57;;;9.90;76.20;;;;;;5036137;28;20181;-90
2023/04/09 03:15:52;;;;;;;8.33;7.63;;;10.00;76.00;;;;;;5034619;28;20216;-90
2023/04/09 03:18:19;;;;;;;9.20;8.37;;;10.00;75.90;;;;;;5035242;28;20862;-91
2023/04/09 03:20:44;;;;;;;9.53;8.67;;;10.10;75.50;;;;;;5035172;28;20189;-88
2023/04/09 03:23:10;;;;;;;9.10;8.30;;;10.00;75.60;;;;;;5017489;28;20264;-91
2023/04/09 03:25:36;;;;;;;9.53;8.63;;;10.00;75.50;;;;;;5033591;28;20288;-91
2023/04/09 03:28:02;;;;;;;9.17;8.37;;;10.00;75.60;;;;;;5017449;28;20181;-90
2023/04/09 03:30:28;;;;;;;8.63;7.83;;;10.00;75.40;;;;;;5017318;28;20264;-90
2023/04/09 03:32:54;;;;;;;9.77;8.80;;;10.00;75.50;;;;;;5018247;28;20191;-89
2023/04/09 03:35:20;;;;;;;9.07;8.20;;;9.90;76.00;;;;;;5013078;28;21646;-90
2023/04/09 03:37:45;;;;;;;10.17;9.10;;;9.90;76.00;;;;;;5015634;28;20728;-91
2023/04/09 03:40:11;;;;;;;9.23;8.33;;;9.90;75.10;;;;;;5035092;28;20533;-90
2023/04/09 03:42:37;;;;;;;9.33;8.43;;;9.90;75.70;;;;;;5036033;28;20213;-89
2023/04/09 03:45:04;;;;;;;10.20;9.30;;;9.90;75.80;;;;;;5038510;28;20192;-90
2023/04/09 03:47:29;;;;;;;8.97;8.17;;;9.80;75.90;;;;;;5038600;28;20189;-91
2023/04/09 03:49:55;;;;;;;9.93;9.03;;;9.80;76.00;;;;;;5022264;28;20270;-91
2023/04/09 03:52:21;;;;;;;8.87;8.03;;;9.90;76.20;;;;;;5045290;28;20185;-91
2023/04/09 03:54:47;;;;;;;9.10;8.30;;;9.80;76.00;;;;;;5049963;28;20173;-90
2023/04/09 03:57:12;;;;;;;8.83;8.00;;;9.80;76.00;;;;;;5033844;28;20265;-90
2023/04/09 03:59:38;;;;;;;9.03;8.23;;;9.80;75.70;;;;;;5034680;28;20785;-90
2023/04/09 04:02:04;;;;;;;9.30;8.33;;;9.90;75.60;;;;;;5035089;28;20254;-90
2023/04/09 04:04:29;;;;;;;9.37;8.43;;;9.80;75.40;;;;;;5033904;28;20182;-90
2023/04/09 04:06:55;;;;;;;10.37;9.27;;;9.80;75.20;;;;;;5017018;28;20207;-92
2023/04/09 04:09:21;;;;;;;9.43;8.63;;;9.90;75.00;;;;;;5036730;28;20186;-92
2023/04/09 04:11:47;;;;;;;9.20;8.40;;;9.90;75.30;;;;;;5024858;28;20647;-89
2023/04/09 04:14:12;;;;;;;9.90;8.70;;;9.90;75.20;;;;;;5016904;28;20673;-91
2023/04/09 04:16:41;;;;;;;9.23;8.37;;;9.80;75.20;;;;;;5014741;28;20588;-90
2023/04/09 04:19:07;;;;;;;9.53;8.70;;;9.70;75.40;;;;;;5014838;28;20177;-90
2023/04/09 04:21:32;;;;;;;9.10;8.20;;;9.80;75.40;;;;;;5014894;28;20205;-90
2023/04/09 04:23:58;;;;;;;10.53;9.50;;;9.80;74.80;;;;;;5013693;28;20317;-92
2023/04/09 04:26:24;;;;;;;10.23;9.20;;;9.80;75.20;;;;;;5013288;28;20213;-91
2023/04/09 04:28:49;;;;;;;10.17;9.17;;;9.70;74.80;;;;;;5016452;28;20192;-88
2023/04/09 04:31:15;;;;;;;10.40;9.03;;;9.60;76.00;;;;;;5030854;28;20791;-90
2023/04/09 04:33:41;;;;;;;10.10;9.10;;;9.60;76.20;;;;;;5012953;28;20619;-90
2023/04/09 04:36:13;;;;;;;10.60;9.53;;;9.60;76.30;;;;;;5013046;28;20273;-90
2023/04/09 04:38:42;;;;;;;10.10;9.03;;;9.50;76.50;;;;;;5018304;28;20582;-91
2023/04/09 04:41:10;;;;;;;10.57;9.57;;;9.50;76.00;;;;;;5004120;28;20185;-91
2023/04/09 04:43:35;;;;;;;9.67;8.77;;;9.50;76.20;;;;;;5017842;28;20214;-90
2023/04/09 04:46:01;;;;;;;10.57;9.57;;;9.40;76.30;;;;;;5025506;28;20217;-89
2023/04/09 04:48:27;;;;;;;10.17;9.17;;;9.30;76.80;;;;;;5026821;28;20740;-90
2023/04/09 04:50:58;;;;;;;10.90;9.80;;;9.30;76.70;;;;;;5024395;28;20178;-89
2023/04/09 04:53:23;;;;;;;11.13;9.93;;;9.30;76.60;;;;;;5020599;28;20193;-90
2023/04/09 04:55:49;;;;;;;10.47;9.47;;;9.30;76.70;;;;;;5012530;28;20194;-89
2023/04/09 04:58:15;;;;;;;11.90;10.70;;;9.30;77.20;;;;;;5013198;28;20196;-89
2023/04/09 05:00:41;;;;;;;11.77;10.57;;;9.20;76.50;;;;;;5027166;28;20189;-90
2023/04/09 05:03:07;;;;;;;12.30;11.10;;;9.30;76.70;;;;;;5034519;28;20211;-90
2023/04/09 05:05:32;;;;;;;14.20;12.70;;;9.20;76.70;;;;;;5034250;28;20745;-89
2023/04/09 05:07:59;;;;;;;15.80;14.17;;;9.10;77.10;;;;;;5037443;28;20168;-91
2023/04/09 05:10:25;;;;;;;13.43;12.13;;;9.10;77.40;;;;;;5055465;28;20253;-90
2023/04/09 05:12:50;;;;;;;13.53;12.20;;;9.00;77.80;;;;;;5055997;28;20157;-92
2023/04/09 05:15:16;;;;;;;13.87;12.47;;;9.00;78.00;;;;;;5045516;28;20212;-91
2023/04/09 05:17:42;;;;;;;14.13;12.70;;;9.00;78.10;;;;;;5047990;28;20684;-91
2023/04/09 05:20:09;;;;;;;14.10;12.70;;;9.10;77.30;;;;;;5031182;28;20182;-91
2023/04/09 05:22:35;;;;;;;12.97;11.77;;;9.10;77.40;;;;;;5023304;28;20236;-89
2023/04/09 05:25:01;;;;;;;12.77;11.50;;;9.00;77.50;;;;;;5023168;28;20527;-90
2023/04/09 05:27:27;;;;;;;12.43;11.13;;;9.10;77.50;;;;;;5022305;28;20212;-89
2023/04/09 05:29:53;;;;;;;12.37;11.17;;;9.10;77.30;;;;;;5013323;28;20586;-90
2023/04/09 05:32:18;;;;;;;10.57;9.47;;;9.10;77.20;;;;;;5030566;28;20189;-90
2023/04/09 05:34:44;;;;;;;12.00;10.90;;;9.00;77.60;;;;;;5037294;28;20185;-89
2023/04/09 05:37:09;;;;;;;14.07;12.67;;;8.90;77.50;;;;;;5036699;28;20609;-90
2023/04/09 05:39:35;;;;;;;13.20;11.90;;;9.00;78.00;;;;;;5042522;28;20565;-90
2023/04/09 05:42:01;;;;;;;13.13;11.70;;;9.00;77.40;;;;;;5049398;28;20429;-89
2023/04/09 05:44:26;;;;;;;13.17;11.87;;;9.00;78.00;;;;;;5043808;28;20235;-91
2023/04/09 05:46:52;;;;;;;13.07;11.87;;;9.00;77.60;;;;;;5054397;28;20199;-90
2023/04/09 05:49:18;;;;;;;14.47;13.07;;;9.00;77.50;;;;;;5046149;28;20192;-89
2023/04/09 05:51:43;;;;;;;16.23;14.63;;;8.90;78.20;;;;;;5035789;28;20231;-91
2023/04/09 05:54:09;;;;;;;13.47;12.17;;;8.90;77.70;;;;;;5036335;28;20219;-92
2023/04/09 05:56:35;;;;;;;14.33;12.83;;;8.80;77.80;;;;;;5018164;28;20201;-89
2023/04/09 05:59:01;;;;;;;14.73;13.23;;;8.80;78.60;;;;;;5037440;28;20185;-90
2023/04/09 06:01:26;;;;;;;14.73;13.23;;;8.80;78.60;;;;;;5037506;28;20196;-91
2023/04/09 06:03:52;;;;;;;18.67;16.87;;;8.80;78.60;;;;;;5036872;28;20212;-89
2023/04/09 06:06:18;;;;;;;17.60;15.80;;;8.90;78.50;;;;;;5036554;28;20213;-91
2023/04/09 06:08:43;;;;;;;15.57;13.97;;;8.80;78.60;;;;;;5018831;28;20336;-89
2023/04/09 06:11:10;;;;;;;14.43;13.03;;;8.80;79.10;;;;;;5036324;28;20169;-91
2023/04/09 06:13:36;;;;;;;12.83;11.60;;;8.80;78.60;;;;;;5037050;28;20235;-90
2023/04/09 06:16:08;;;;;;;14.63;13.03;;;8.80;78.60;;;;;;5036278;28;20201;-89
2023/04/09 06:18:34;;;;;;;13.80;12.43;;;8.80;78.80;;;;;;5019579;28;20267;-89
2023/04/09 06:21:05;;;;;;;13.73;12.27;;;8.80;78.60;;;;;;5036054;28;20189;-89
2023/04/09 06:23:35;;;;;;;14.37;12.97;;;8.80;78.90;;;;;;5034697;28;20197;-88
2023/04/09 06:26:01;;;;;;;14.07;12.67;;;8.70;79.50;;;;;;5034346;28;20826;-89
2023/04/09 06:28:30;;;;;;;13.00;11.70;;;8.70;79.40;;;;;;5034176;28;20722;-90
2023/04/09 06:30:56;;;;;;;15.97;14.33;;;8.60;79.90;;;;;;5035931;28;20620;-90
2023/04/09 06:33:22;;;;;;;20.47;18.40;;;8.60;80.00;;;;;;5041892;28;20173;-89
2023/04/09 06:35:48;;;;;;;21.03;18.83;;;8.60;80.20;;;;;;5035520;28;20189;-90
2023/04/09 06:38:14;;;;;;;24.67;22.10;;;8.70;80.00;;;;;;5061268;28;20188;-87
2023/04/09 06:40:41;;;;;;;18.53;16.63;;;8.70;79.80;;;;;;5035659;28;20317;-90
2023/04/09 06:43:06;;;;;;;24.73;22.13;;;8.70;79.60;;;;;;5039348;28;20185;-89
2023/04/09 06:45:32;;;;;;;22.13;19.80;;;8.80;79.70;;;;;;5027979;28;20216;-90
2023/04/09 06:48:01;;;;;;;17.63;15.50;;;8.90;79.40;;;;;;5045367;28;20188;-90
2023/04/09 06:50:27;;;;;;;22.63;20.17;;;9.00;79.30;;;;;;5047427;28;20196;-90
2023/04/09 06:52:54;;;;;;;13.63;12.33;;;9.00;78.80;;;;;;5040393;28;20268;-89
2023/04/09 06:55:19;;;;;;;12.97;11.63;;;9.10;79.40;;;;;;5042780;28;20204;-90
2023/04/09 06:57:45;;;;;;;15.53;14.03;;;9.20;78.60;;;;;;5040415;28;20271;-91
2023/04/09 07:00:11;;;;;;;13.30;11.90;;;9.30;78.80;;;;;;5024644;28;20181;-89
2023/04/09 07:02:37;;;;;;;15.30;13.70;;;9.30;77.70;;;;;;5035864;28;20782;-89
2023/04/09 07:05:03;;;;;;;14.10;12.70;;;9.40;78.10;;;;;;5034777;28;20217;-90
2023/04/09 07:07:29;;;;;;;14.70;13.20;;;9.40;77.50;;;;;;5017474;28;20201;-91
2023/04/09 07:09:55;;;;;;;16.53;14.83;;;9.50;77.00;;;;;;5035832;28;20177;-90
2023/04/09 07:12:31;;;;;;;13.70;12.40;;;9.50;76.70;;;;;;5034607;28;20177;-89
2023/04/09 07:15:01;;;;;;;14.10;12.73;;;9.50;77.30;;;;;;5016762;28;20222;-90
2023/04/09 07:17:28;;;;;;;14.17;12.87;;;9.50;76.90;;;;;;5034203;28;20650;-89
2023/04/09 07:19:54;;;;;;;15.30;13.70;;;9.50;76.80;;;;;;5034896;28;20538;-90
2023/04/09 07:22:23;;;;;;;14.17;12.87;;;9.60;76.60;;;;;;5035967;28;20197;-90
2023/04/09 07:24:52;;;;;;;15.03;13.53;;;9.70;76.50;;;;;;5016642;28;20192;-89
2023/04/09 07:27:27;;;;;;;14.47;13.17;;;9.70;76.50;;;;;;5035353;28;20219;-90
2023/04/09 07:29:55;;;;;;;15.93;14.43;;;9.80;76.00;;;;;;5017595;28;20180;-90
2023/04/09 07:32:21;;;;;;;15.50;14.10;;;9.90;75.10;;;;;;5034514;28;20184;-88
2023/04/09 07:34:47;;;;;;;15.30;13.80;;;9.90;75.80;;;;;;5014712;28;20185;-90
2023/04/09 07:37:12;;;;;;;17.37;15.67;;;10.10;74.40;;;;;;5022299;28;20207;-88
2023/04/09 07:39:38;;;;;;;17.10;15.37;;;10.20;74.00;;;;;;5031790;28;20185;-88
2023/04/09 07:42:04;;;;;;;15.37;13.53;;;10.10;74.10;;;;;;5016311;28;20318;-89
2023/04/09 07:44:35;;;;;;;16.43;14.73;;;10.20;74.10;;;;;;5036732;28;20209;-89
2023/04/09 07:47:01;;;;;;;17.33;15.47;;;10.30;74.60;;;;;;5034359;28;20252;-90
2023/04/09 07:49:27;;;;;;;14.77;13.43;;;10.30;73.90;;;;;;5033005;28;20242;-89
2023/04/09 07:51:53;;;;;;;16.67;15.00;;;10.30;73.60;;;;;;5032906;28;20635;-90
2023/04/09 07:54:20;;;;;;;14.67;13.10;;;10.40;72.90;;;;;;5033663;28;20188;-90
2023/04/09 07:56:46;;;;;;;14.93;13.53;;;10.50;73.30;;;;;;5033525;28;20196;-89
2023/04/09 07:59:12;;;;;;;14.70;13.20;;;10.60;72.60;;;;;;5034506;28;20765;-88
2023/04/09 08:01:38;;;;;;;14.70;13.30;;;10.70;71.90;;;;;;5034812;28;20541;-88
2023/04/09 08:04:04;;;;;;;17.30;13.13;;;10.80;71.40;;;;;;5036878;28;20216;-89
2023/04/09 08:06:29;;;;;;;15.57;14.07;;;10.90;71.10;;;;;;5032240;28;20208;-90
2023/04/09 08:08:55;;;;;;;14.67;13.17;;;11.00;70.70;;;;;;5016338;28;20197;-90
2023/04/09 08:11:24;;;;;;;13.90;12.67;;;11.10;70.30;;;;;;5032756;28;20181;-89
2023/04/09 08:13:53;;;;;;;15.53;14.03;;;11.20;69.90;;;;;;5033369;28;20180;-91
2023/04/09 08:16:20;;;;;;;14.23;12.83;;;11.10;69.70;;;;;;5013840;28;20686;-90
2023/04/09 08:18:46;;;;;;;15.07;13.73;;;11.20;69.70;;;;;;5032052;28;20201;-90
2023/04/09 08:21:12;;;;;;;14.50;13.07;;;11.20;69.70;;;;;;5031469;28;20675;-89
2023/04/09 08:23:37;;;;;;;14.30;13.00;;;11.40;69.10;;;;;;5014403;28;20306;-90
2023/04/09 08:26:03;;;;;;;13.63;12.30;;;11.50;68.50;;;;;;5032006;28;20219;-88
2023/04/09 08:28:29;;;;;;;14.30;12.90;;;11.60;67.80;;;;;;5032527;28;20180;-90
2023/04/09 08:30:55;;;;;;;14.77;13.37;;;11.70;66.80;;;;;;5034066;28;20181;-90
2023/04/09 08:33:21;;;;;;;14.10;12.63;;;11.80;67.40;;;;;;5022871;28;20186;-92
2023/04/09 08:35:46;;;;;;;14.40;13.00;;;11.90;66.60;;;;;;5014068;28;20204;-90
2023/04/09 08:38:13;;;;;;;14.23;12.93;;;12.00;65.80;;;;;;5007020;28;20260;-90
2023/04/09 08:40:39;;;;;;;13.97;12.67;;;12.10;65.10;;;;;;5014379;28;20662;-90
2023/04/09 08:43:06;;;;;;;13.57;12.37;;;12.20;64.10;;;;;;4995557;28;20235;-89
2023/04/09 08:45:32;;;;;;;12.40;11.27;;;12.30;64.20;;;;;;5012784;28;20245;-89
2023/04/09 08:47:58;;;;;;;11.37;10.37;;;12.40;64.00;;;;;;4995318;28;20180;-90
2023/04/09 08:50:31;;;;;;;11.03;10.13;;;12.60;61.70;;;;;;5030857;28;20268;-90
2023/04/09 08:52:58;;;;;;;10.53;9.53;;;12.70;59.20;;;;;;5033914;28;20187;-90
2023/04/09 08:55:23;;;;;;;11.53;10.43;;;12.80;57.30;;;;;;5015624;28;20212;-90
2023/04/09 08:57:49;;;;;;;12.70;11.63;;;13.00;59.30;;;;;;5035366;28;20300;-89
2023/04/09 09:00:16;;;;;;;12.00;10.90;;;13.20;59.10;;;;;;5031630;28;20242;-90
2023/04/09 09:03:04;;;;;;;11.87;10.97;;;13.30;58.80;;;;;;5033795;28;20207;-89
2023/04/09 09:05:45;;;;;;;12.50;11.43;;;13.30;58.30;;;;;;5015561;28;20222;-92
2023/04/09 09:08:24;;;;;;;11.47;10.47;;;13.10;57.70;;;;;;5044844;28;20156;-90
2023/04/09 09:10:50;;;;;;;11.47;10.47;;;13.10;56.80;;;;;;5036867;28;20196;-90
2023/04/09 09:13:26;;;;;;;11.33;10.33;;;13.10;56.40;;;;;;5037701;28;20627;-89
2023/04/09 09:15:55;;;;;;;10.10;9.30;;;13.30;56.20;;;;;;5019290;28;20225;-90
2023/04/09 09:18:41;;;;;;;8.73;8.03;;;13.50;52.20;;;;;;5038721;28;20263;-90
2023/04/09 09:21:10;;;;;;;10.47;9.50;;;13.80;48.90;;;;;;5019981;28;20608;-90
2023/04/09 09:23:36;;;;;;;10.60;9.63;;;13.80;51.20;;;;;;5037231;28;20216;-89
2023/04/09 09:26:15;;;;;;;10.47;9.57;;;14.00;50.90;;;;;;5034987;28;20207;-88
2023/04/09 09:28:41;;;;;;;10.50;9.43;;;13.80;51.70;;;;;;5047669;28;20242;-89
2023/04/09 09:31:11;;;;;;;9.83;9.03;;;13.90;51.20;;;;;;5038227;28;20177;-91
2023/04/09 09:33:37;;;;;;;9.90;9.10;;;14.00;49.10;;;;;;4997153;28;20534;-90
2023/04/09 09:36:03;;;;;;;8.83;8.13;;;14.00;49.10;;;;;;5034631;28;20543;-90
2023/04/09 09:38:29;;;;;;;7.40;6.70;;;13.80;50.90;;;;;;5035844;28;20186;-90
2023/04/09 09:40:55;;;;;;;7.53;6.83;;;13.80;46.90;;;;;;5038756;28;20186;-90
2023/04/09 09:43:21;;;;;;;7.33;6.80;;;13.60;46.10;;;;;;5036658;28;20683;-90
2023/04/09 09:45:47;;;;;;;7.50;6.90;;;13.60;48.00;;;;;;5019964;28;20680;-90
2023/04/09 09:48:14;;;;;;;6.40;5.80;;;13.80;44.10;;;;;;5038626;28;20182;-88
2023/04/09 09:50:40;;;;;;;6.40;5.80;;;13.80;41.00;;;;;;5054395;28;20184;-90
2023/04/09 09:53:08;;;;;;;6.70;6.03;;;13.60;43.40;;;;;;5057947;28;20401;-90
2023/04/09 09:55:38;;;;;;;6.23;5.63;;;13.60;41.60;;;;;;5057228;28;20212;-91
2023/04/09 09:58:11;;;;;;;5.10;4.70;;;13.70;42.00;;;;;;5052555;28;20177;-89
2023/04/09 10:00:39;;;;;;;4.87;4.47;;;13.70;42.00;;;;;;5035863;28;20190;-89
2023/04/09 10:03:18;;;;;;;5.07;4.67;;;13.80;41.80;;;;;;5016817;28;20218;-90
2023/04/09 10:05:44;;;;;;;4.50;4.10;;;13.80;41.10;;;;;;5034721;28;20200;-90
2023/04/09 10:08:11;;;;;;;4.80;4.40;;;14.00;39.30;;;;;;5035858;28;20702;-90
2023/04/09 10:10:40;;;;;;;4.60;4.30;;;14.20;39.60;;;;;;5036241;28;20173;-90
2023/04/09 10:13:09;;;;;;;5.30;4.90;;;14.40;39.70;;;;;;5036791;28;20192;-90
2023/04/09 10:15:35;;;;;;;4.83;4.43;;;14.10;39.60;;;;;;5016883;28;20238;-90
2023/04/09 10:18:00;;;;;;;4.40;4.10;;;14.00;39.70;;;;;;5017771;28;20278;-90
2023/04/09 10:20:40;;;;;;;5.00;4.63;;;13.90;40.60;;;;;;5035926;28;20669;-90
2023/04/09 10:23:14;;;;;;;4.93;4.53;;;13.70;40.60;;;;;;5035714;28;20665;-88
2023/04/09 10:25:41;;;;;;;4.80;4.40;;;13.60;39.80;;;;;;5035272;28;20299;-91
2023/04/09 10:28:17;;;;;;;4.50;4.10;;;13.70;38.50;;;;;;5016509;28;20182;-90
2023/04/09 10:30:43;;;;;;;4.87;4.47;;;13.80;40.10;;;;;;5027993;28;20185;-91
2023/04/09 10:33:14;;;;;;;5.07;4.67;;;13.70;40.30;;;;;;5014903;28;20182;-90
2023/04/09 10:35:41;;;;;;;9.17;5.20;;;13.70;40.40;;;;;;5033464;28;20255;-90
2023/04/09 10:38:08;;;;;;;5.57;5.03;;;13.70;40.40;;;;;;5016612;28;20180;-90
2023/04/09 10:40:35;;;;;;;15.00;6.27;;;13.80;40.90;;;;;;5017214;28;20286;-92
2023/04/09 10:43:02;;;;;;;5.93;5.40;;;14.10;39.70;;;;;;5035124;28;20274;-90
2023/04/09 10:45:40;;;;;;;5.50;5.10;;;14.40;38.60;;;;;;5035241;28;20193;-90
2023/04/09 10:48:13;;;;;;;5.90;5.40;;;14.30;40.20;;;;;;5034999;28;20200;-91
2023/04/09 10:50:43;;;;;;;7.77;7.17;;;14.30;41.10;;;;;;5035477;28;20550;-91
2023/04/09 10:53:21;;;;;;;7.60;7.00;;;14.50;43.70;;;;;;5016826;28;20237;-89
2023/04/09 10:55:51;;;;;;;8.37;7.67;;;14.80;42.70;;;;;;5033766;28;20204;-90
2023/04/09 10:58:17;;;;;;;8.17;7.47;;;14.80;44.40;;;;;;5015385;28;20192;-90
2023/04/09 11:00:47;;;;;;;7.87;7.27;;;15.00;43.30;;;;;;5016130;28;20345;-91
2023/04/09 11:03:23;;;;;;;7.53;7.00;;;15.00;43.70;;;;;;5034214;28;20237;-90
2023/04/09 11:05:51;;;;;;;6.20;5.70;;;15.10;44.00;;;;;;5034641;28;20227;-91
2023/04/09 11:08:17;;;;;;;5.60;5.20;;;15.00;38.90;;;;;;5035768;28;20153;-91
2023/04/09 11:10:45;;;;;;;5.53;5.13;;;14.90;39.70;;;;;;5018789;28;20186;-90
2023/04/09 11:13:12;;;;;;;5.87;5.37;;;14.70;37.80;;;;;;5039576;28;20531;-90
2023/04/09 11:15:38;;;;;;;6.30;5.80;;;14.70;39.20;;;;;;5043176;28;20193;-91
2023/04/09 11:18:05;;;;;;;5.67;5.27;;;14.70;39.50;;;;;;5023985;28;20193;-88
2023/04/09 11:20:33;;;;;;;5.23;4.93;;;14.80;39.30;;;;;;5048090;28;20180;-89
2023/04/09 11:22:59;;;;;;;6.60;6.10;;;15.20;39.80;;;;;;5039143;28;20204;-91
2023/04/09 11:25:30;;;;;;;6.00;5.60;;;15.50;39.90;;;;;;5038090;28;20694;-90
2023/04/09 11:27:56;;;;;;;5.80;5.20;;;16.10;37.20;;;;;;5007848;28;20246;-90
2023/04/09 11:30:22;;;;;;;6.03;5.53;;;16.10;37.10;;;;;;5016277;28;20192;-88
2023/04/09 11:32:49;;;;;;;5.50;5.10;;;16.50;35.70;;;;;;5039075;28;20185;-90
2023/04/09 11:35:17;;;;;;;5.50;5.10;;;16.70;35.60;;;;;;5048742;28;20196;-91
2023/04/09 11:37:43;;;;;;;5.20;4.80;;;16.80;34.30;;;;;;5030395;28;20175;-91
2023/04/09 11:40:24;;;;;;;6.50;6.00;;;16.80;35.10;;;;;;5037914;28;20254;-90
2023/04/09 11:42:51;;;;;;;5.70;5.30;;;16.80;35.00;;;;;;5018018;28;20231;-90
2023/04/09 11:45:19;;;;;;;6.03;5.63;;;16.60;34.70;;;;;;5035157;28;20192;-89
2023/04/09 11:47:46;;;;;;;5.63;5.23;;;16.50;36.20;;;;;;5038472;28;20192;-88
2023/04/09 11:50:13;;;;;;;5.77;5.37;;;16.60;36.20;;;;;;5038429;28;20187;-90
2023/04/09 11:52:40;;;;;;;5.73;5.33;;;16.80;35.20;;;;;;5039240;28;20224;-90
2023/04/09 11:55:07;;;;;;;5.50;5.00;;;16.80;34.40;;;;;;5036787;28;20200;-89
2023/04/09 11:57:47;;;;;;;5.70;5.20;;;16.70;34.20;;;;;;5018408;28;20244;-91
2023/04/09 12:00:15;;;;;;;5.93;5.53;;;16.30;34.30;;;;;;5022761;28;20207;-89
2023/04/09 12:02:42;;;;;;;5.63;5.23;;;15.80;36.70;;;;;;5036055;28;20214;-89
2023/04/09 12:05:10;;;;;;;5.53;5.13;;;15.80;35.90;;;;;;5016804;28;20177;-89
2023/04/09 12:07:37;;;;;;;5.57;5.17;;;16.10;35.20;;;;;;5034640;28;20182;-89
2023/04/09 12:10:09;;;;;;;5.70;5.20;;;16.20;34.60;;;;;;5034536;28;20170;-90
2023/04/09 12:12:45;;;;;;;6.07;5.47;;;16.40;35.10;;;;;;5035394;28;20192;-92
2023/04/09 12:15:24;;;;;;;5.10;4.70;;;16.20;35.70;;;;;;5016501;28;20163;-90
2023/04/09 12:17:57;;;;;;;4.87;4.47;;;16.30;35.60;;;;;;5036301;28;20186;-92
2023/04/09 12:20:41;;;;;;;5.23;4.90;;;16.30;34.30;;;;;;5059953;22;20687;-89
2023/04/09 12:23:07;;;;;;;6.03;5.43;;;16.40;34.10;;;;;;4998102;28;20224;-87
2023/04/09 12:25:35;;;;;;;5.37;5.00;;;16.70;33.20;;;;;;5015108;28;20177;-89
2023/04/09 12:28:02;;;;;;;5.03;4.70;;;16.90;31.20;;;;;;5015376;28;20253;-87
2023/04/09 12:30:28;;;;;;;4.80;4.50;;;17.10;31.50;;;;;;5010316;28;20656;-87
2023/04/09 12:32:54;;;;;;;5.47;5.07;;;17.30;31.00;;;;;;5011284;28;20192;-87
2023/04/09 12:35:21;;;;;;;5.00;4.70;;;17.20;30.90;;;;;;5015778;28;20187;-88
2023/04/09 12:37:48;;;;;;;5.40;5.00;;;17.10;33.10;;;;;;5016276;28;20177;-86
2023/04/09 12:40:15;;;;;;;5.30;4.90;;;17.10;32.20;;;;;;5017832;28;20208;-88
2023/04/09 12:42:41;;;;;;;6.00;5.53;;;17.50;32.20;;;;;;5019334;28;20176;-87
2023/04/09 12:45:10;;;;;;;5.28;4.97;;;18.30;30.00;;;;;;4999291;28;20273;-83
2023/04/09 12:47:35;;;;;;;6.10;5.70;;;18.80;31.30;;;;;;5019846;28;20200;-87